createdAt,value
2022-09-28T00:00:27.178Z,99636.13
2022-09-28T00:01:29.336Z,99630.88
2022-09-28T00:02:31.313Z,99637.83
2022-09-28T00:03:33.263Z,99641.34
2022-09-28T00:04:35.129Z,99636.04
2022-09-28T00:05:36.945Z,99641.29
2022-09-28T00:06:38.774Z,99636.04
2022-09-28T00:07:40.608Z,99632.48
2022-09-28T00:08:42.435Z,99636.84
2022-09-28T00:09:44.284Z,99628.95
2022-09-28T00:10:46.219Z,99625.44
2022-09-28T00:11:48.175Z,99619.26
2022-09-28T00:12:49.987Z,99627.13
2022-09-28T00:13:51.823Z,99624.46
2022-09-28T00:14:53.678Z,99616.62
2022-09-28T00:15:55.544Z,99627.08
2022-09-28T00:16:57.319Z,99622.77
2022-09-28T00:17:59.141Z,99620.98
2022-09-28T00:19:01.000Z,99624.46
2022-09-28T00:20:03.816Z,99622.72
2022-09-28T00:21:05.606Z,99626.19
2022-09-28T00:22:07.394Z,99631.44
2022-09-28T00:23:09.189Z,99633.17
2022-09-28T00:24:10.991Z,99638.42
2022-09-28T00:25:12.834Z,99634.02
2022-09-28T00:26:15.337Z,99642.74
2022-09-28T00:27:17.176Z,99636.59
2022-09-28T00:28:18.978Z,99635.74
2022-09-28T00:29:20.775Z,99638.38
2022-09-28T00:30:22.728Z,99638.38
2022-09-28T00:31:24.569Z,99631.34
2022-09-28T00:32:26.323Z,99633.97
2022-09-28T00:33:28.127Z,99626.94
2022-09-28T00:34:29.920Z,99626.94
2022-09-28T00:35:31.768Z,99619.06
2022-09-28T00:36:33.568Z,99619.94
2022-09-28T00:37:35.360Z,99616.38
2022-09-28T00:38:37.147Z,99611.13
2022-09-28T00:39:38.949Z,99610.28
2022-09-28T00:40:40.866Z,99612.02
2022-09-28T00:41:43.397Z,99609.39
2022-09-28T00:42:45.257Z,99618.16
2022-09-28T00:43:47.048Z,99612.91
2022-09-28T00:44:48.842Z,99606.81
2022-09-28T00:45:50.722Z,99605.93
2022-09-28T00:46:52.487Z,99606.81
2022-09-28T00:47:54.178Z,99606.81
2022-09-28T00:48:55.976Z,99608.55
2022-09-28T00:49:57.776Z,99602.45
2022-09-28T00:50:59.713Z,99604.19
2022-09-28T00:52:01.649Z,99605.93
2022-09-28T00:53:03.567Z,99604.19
2022-09-28T00:54:05.395Z,99601.56
2022-09-28T00:55:07.199Z,99605.03
2022-09-28T00:56:09.336Z,99601.56
2022-09-28T00:57:11.140Z,99598.94
2022-09-28T00:58:12.953Z,99598.88
2022-09-28T00:59:14.774Z,99598.88
2022-09-28T01:00:16.646Z,99610.23
2022-09-28T01:01:18.591Z,99602.36
2022-09-28T01:02:22.066Z,99601.51
2022-09-28T01:03:23.929Z,99606.77
2022-09-28T01:04:29.775Z,99606.77
2022-09-28T01:05:29.352Z,99608.45
2022-09-28T01:06:31.171Z,99601.46
2022-09-28T01:07:32.956Z,99605.83
2022-09-28T01:08:34.659Z,99607.56
2022-09-28T01:09:36.445Z,99602.30
2022-09-28T01:10:38.251Z,99602.30
2022-09-28T01:11:40.191Z,99601.46
2022-09-28T01:12:41.989Z,99603.20
2022-09-28T01:13:43.831Z,99612.81
2022-09-28T01:14:45.629Z,99611.91
2022-09-28T01:15:47.431Z,99616.28
2022-09-28T01:16:49.352Z,99612.77
2022-09-28T01:17:51.237Z,99612.77
2022-09-28T01:18:53.039Z,99615.44
2022-09-28T01:19:54.739Z,99614.54
2022-09-28T01:20:56.554Z,99612.77
2022-09-28T01:21:58.565Z,99611.91
2022-09-28T01:23:00.356Z,99619.79
2022-09-28T01:24:02.158Z,99615.39
2022-09-28T01:25:04.167Z,99607.52
2022-09-28T01:26:06.155Z,99610.98
2022-09-28T01:27:08.007Z,99609.29
2022-09-28T01:28:09.817Z,99611.03
2022-09-28T01:29:11.624Z,99611.03
2022-09-28T01:30:14.537Z,99617.17
2022-09-28T01:31:16.390Z,99605.73
2022-09-28T01:32:18.294Z,99614.48
2022-09-28T01:33:20.095Z,99617.12
2022-09-28T01:34:21.888Z,99617.12
2022-09-28T01:35:23.682Z,99620.59
2022-09-28T01:36:25.495Z,99620.59
2022-09-28T01:37:27.311Z,99616.19
2022-09-28T01:38:29.104Z,99611.81
2022-09-28T01:39:30.905Z,99614.44
2022-09-28T01:40:32.856Z,99611.81
2022-09-28T01:41:34.642Z,99609.19
2022-09-28T01:42:36.465Z,99609.19
2022-09-28T01:43:38.252Z,99606.56
2022-09-28T01:44:40.192Z,99608.29
2022-09-28T01:45:42.033Z,99603.03
2022-09-28T01:46:43.893Z,99603.03
2022-09-28T01:47:45.718Z,99603.94
2022-09-28T01:48:47.524Z,99610.03
2022-09-28T01:49:49.322Z,99605.66
2022-09-28T01:50:51.123Z,99608.29
2022-09-28T01:51:52.822Z,99612.66
2022-09-28T01:52:54.649Z,99610.09
2022-09-28T01:53:56.447Z,99620.54
2022-09-28T01:54:58.247Z,99621.42
2022-09-28T01:56:00.049Z,99623.16
2022-09-28T01:57:01.848Z,99619.64
2022-09-28T01:58:03.666Z,99613.55
2022-09-28T01:59:05.459Z,99616.17
2022-09-28T02:00:07.505Z,99614.39
2022-09-28T02:01:09.341Z,99608.29
2022-09-28T02:02:11.138Z,99616.12
2022-09-28T02:03:13.005Z,99619.64
2022-09-28T02:04:14.803Z,99622.22
2022-09-28T02:05:16.604Z,99618.75
2022-09-28T02:06:18.599Z,99618.75
2022-09-28T02:07:20.393Z,99623.12
2022-09-28T02:08:22.297Z,99619.64
2022-09-28T02:09:24.106Z,99620.49
2022-09-28T02:10:25.948Z,99616.12
2022-09-28T02:11:27.765Z,99611.72
2022-09-28T02:12:29.567Z,99611.72
2022-09-28T02:13:31.417Z,99619.59
2022-09-28T02:14:33.211Z,99614.34
2022-09-28T02:15:35.118Z,99614.34
2022-09-28T02:16:36.978Z,99613.49
2022-09-28T02:17:38.817Z,99617.81
2022-09-28T02:18:40.650Z,99616.92
2022-09-28T02:19:42.437Z,99607.31
2022-09-28T02:20:44.152Z,99614.34
2022-09-28T02:21:45.959Z,99623.06
2022-09-28T02:22:47.761Z,99628.32
2022-09-28T02:23:49.601Z,99623.06
2022-09-28T02:24:51.387Z,99623.06
2022-09-28T02:25:53.191Z,99619.59
2022-09-28T02:26:54.976Z,99620.44
2022-09-28T02:27:56.787Z,99620.44
2022-09-28T02:28:58.623Z,99624.84
2022-09-28T02:30:00.412Z,99630.09
2022-09-28T02:31:02.526Z,99620.44
2022-09-28T02:32:04.372Z,99622.22
2022-09-28T02:33:06.326Z,99620.44
2022-09-28T02:34:08.177Z,99623.06
2022-09-28T02:35:10.003Z,99620.44
2022-09-28T02:36:12.647Z,99625.69
2022-09-28T02:37:14.480Z,99617.81
2022-09-28T02:38:16.295Z,99623.95
2022-09-28T02:39:18.295Z,99616.97
2022-09-28T02:40:20.261Z,99621.32
2022-09-28T02:41:22.039Z,99619.59
2022-09-28T02:42:23.852Z,99621.32
2022-09-28T02:43:25.690Z,99623.95
2022-09-28T02:44:27.575Z,99626.58
2022-09-28T02:45:29.433Z,99628.32
2022-09-28T02:46:31.312Z,99630.05
2022-09-28T02:47:33.134Z,99624.80
2022-09-28T02:48:43.523Z,99615.19
2022-09-28T02:49:38.627Z,99620.44
2022-09-28T02:50:40.433Z,99625.69
2022-09-28T02:51:42.256Z,99626.63
2022-09-28T02:52:44.167Z,99627.47
2022-09-28T02:53:45.979Z,99624.84
2022-09-28T02:54:47.829Z,99626.58
2022-09-28T02:55:49.656Z,99628.32
2022-09-28T02:56:51.471Z,99626.58
2022-09-28T02:57:53.313Z,99622.17
2022-09-28T02:58:55.166Z,99626.52
2022-09-28T02:59:56.999Z,99617.77
2022-09-28T03:00:58.902Z,99616.92
2022-09-28T03:02:00.924Z,99615.14
2022-09-28T03:03:02.807Z,99617.77
2022-09-28T03:04:04.621Z,99617.77
2022-09-28T03:05:08.283Z,99623.02
2022-09-28T03:06:10.204Z,99616.02
2022-09-28T03:07:12.036Z,99625.64
2022-09-28T03:08:13.884Z,99623.95
2022-09-28T03:09:15.695Z,99615.14
2022-09-28T03:10:17.646Z,99621.32
2022-09-28T03:11:19.469Z,99619.54
2022-09-28T03:12:21.428Z,99623.90
2022-09-28T03:13:23.227Z,99614.29
2022-09-28T03:14:25.043Z,99613.44
2022-09-28T03:15:26.904Z,99615.14
2022-09-28T03:16:28.749Z,99614.29
2022-09-28T03:17:30.577Z,99615.14
2022-09-28T03:18:32.393Z,99610.81
2022-09-28T03:19:34.206Z,99606.41
2022-09-28T03:20:36.063Z,99610.81
2022-09-28T03:21:37.896Z,99611.66
2022-09-28T03:22:39.724Z,99607.31
2022-09-28T03:23:41.544Z,99610.81
2022-09-28T03:24:43.370Z,99605.56
2022-09-28T03:25:45.227Z,99610.81
2022-09-28T03:26:47.038Z,99610.81
2022-09-28T03:27:48.853Z,99608.19
2022-09-28T03:28:50.664Z,99602.05
2022-09-28T03:29:52.517Z,99599.43
2022-09-28T03:30:54.383Z,99596.80
2022-09-28T03:31:56.233Z,99602.98
2022-09-28T03:32:58.119Z,99596.86
2022-09-28T03:34:00.043Z,99597.73
2022-09-28T03:35:01.867Z,99594.23
2022-09-28T03:36:03.732Z,99601.26
2022-09-28T03:37:05.525Z,99597.78
2022-09-28T03:38:07.360Z,99602.11
2022-09-28T03:39:09.180Z,99605.66
2022-09-28T03:40:10.997Z,99609.14
2022-09-28T03:41:13.159Z,99611.81
2022-09-28T03:42:14.991Z,99614.44
2022-09-28T03:43:16.805Z,99607.45
2022-09-28T03:44:18.620Z,99611.81
2022-09-28T03:45:20.431Z,99617.97
2022-09-28T03:46:22.392Z,99622.37
2022-09-28T03:47:24.213Z,99619.79
2022-09-28T03:48:31.210Z,99619.79
2022-09-28T03:49:29.757Z,99621.53
2022-09-28T03:50:31.573Z,99619.79
2022-09-28T03:51:33.431Z,99626.79
2022-09-28T03:52:35.239Z,99610.19
2022-09-28T03:53:37.072Z,99612.81
2022-09-28T03:54:38.868Z,99615.44
2022-09-28T03:55:40.699Z,99612.81
2022-09-28T03:56:42.554Z,99611.97
2022-09-28T03:57:44.367Z,99617.27
2022-09-28T03:58:46.186Z,99614.64
2022-09-28T03:59:48.039Z,99614.69
2022-09-28T04:00:49.914Z,99617.31
2022-09-28T04:01:51.978Z,99623.41
2022-09-28T04:02:53.809Z,99612.11
2022-09-28T04:03:55.770Z,99613.01
2022-09-28T04:04:57.596Z,99619.11
2022-09-28T04:05:59.422Z,99617.41
2022-09-28T04:07:01.371Z,99621.78
2022-09-28T04:08:03.195Z,99624.46
2022-09-28T04:09:05.023Z,99631.48
2022-09-28T04:10:06.935Z,99635.89
2022-09-28T04:11:08.753Z,99630.69
2022-09-28T04:12:10.720Z,99640.27
2022-09-28T04:13:12.548Z,99635.02
2022-09-28T04:14:14.368Z,99623.66
2022-09-28T04:15:16.176Z,99629.77
2022-09-28T04:16:18.728Z,99623.66
2022-09-28T04:17:20.570Z,99632.39
2022-09-28T04:18:22.396Z,99628.86
2022-09-28T04:19:24.241Z,99630.64
2022-09-28T04:20:26.049Z,99632.39
2022-09-28T04:21:27.869Z,99633.27
2022-09-28T04:22:29.729Z,99633.27
2022-09-28T04:23:31.557Z,99635.02
2022-09-28T04:24:33.394Z,99637.63
2022-09-28T04:25:35.208Z,99640.27
2022-09-28T04:26:37.027Z,99638.52
2022-09-28T04:27:38.892Z,99636.79
2022-09-28T04:28:40.726Z,99636.79
2022-09-28T04:29:42.541Z,99638.52
2022-09-28T04:30:44.352Z,99631.53
2022-09-28T04:31:46.223Z,99632.39
2022-09-28T04:32:48.047Z,99636.73
2022-09-28T04:33:49.854Z,99632.34
2022-09-28T04:34:51.713Z,99616.58
2022-09-28T04:35:53.528Z,99616.58
2022-09-28T04:36:55.362Z,99612.21
2022-09-28T04:37:57.210Z,99615.69
2022-09-28T04:38:59.022Z,99607.81
2022-09-28T04:40:00.840Z,99609.53
2022-09-28T04:41:02.744Z,99610.39
2022-09-28T04:42:04.621Z,99612.16
2022-09-28T04:43:06.458Z,99609.53
2022-09-28T04:44:08.245Z,99609.53
2022-09-28T04:45:10.043Z,99615.63
2022-09-28T04:46:12.321Z,99619.11
2022-09-28T04:47:14.061Z,99613.86
2022-09-28T04:48:16.017Z,99619.11
2022-09-28T04:49:17.895Z,99621.73
2022-09-28T04:50:19.839Z,99620.84
2022-09-28T04:51:21.644Z,99616.48
2022-09-28T04:52:23.477Z,99626.09
2022-09-28T04:53:25.321Z,99621.69
2022-09-28T04:54:27.125Z,99626.09
2022-09-28T04:55:28.947Z,99630.45
2022-09-28T04:56:30.734Z,99630.45
2022-09-28T04:57:32.537Z,99634.81
2022-09-28T04:58:34.376Z,99632.19
2022-09-28T04:59:36.177Z,99630.45
2022-09-28T05:00:37.972Z,99640.95
2022-09-28T05:01:39.946Z,99634.81
2022-09-28T05:02:41.815Z,99647.89
2022-09-28T05:03:43.638Z,99644.42
2022-09-28T05:04:45.437Z,99637.44
2022-09-28T05:05:47.256Z,99640.06
2022-09-28T05:06:49.075Z,99641.75
2022-09-28T05:07:50.867Z,99639.12
2022-09-28T05:08:52.687Z,99639.97
2022-09-28T05:09:54.649Z,99632.09
2022-09-28T05:10:56.396Z,99634.72
2022-09-28T05:11:58.199Z,99639.08
2022-09-28T05:13:00.008Z,99643.43
2022-09-28T05:14:01.840Z,99643.43
2022-09-28T05:15:03.632Z,99639.88
2022-09-28T05:16:05.805Z,99642.50
2022-09-28T05:17:07.641Z,99641.65
2022-09-28T05:18:09.448Z,99645.08
2022-09-28T05:19:11.290Z,99637.20
2022-09-28T05:20:14.926Z,99641.55
2022-09-28T05:21:16.728Z,99637.18
2022-09-28T05:22:18.625Z,99631.92
2022-09-28T05:23:20.430Z,99631.00
2022-09-28T05:24:22.289Z,99631.00
2022-09-28T05:25:24.098Z,99630.95
2022-09-28T05:26:25.892Z,99631.83
2022-09-28T05:27:27.703Z,99640.55
2022-09-28T05:28:29.513Z,99640.50
2022-09-28T05:29:32.443Z,99637.88
2022-09-28T05:30:34.575Z,99641.34
2022-09-28T05:31:36.432Z,99633.45
2022-09-28T05:32:38.182Z,99632.56
2022-09-28T05:33:39.978Z,99626.41
2022-09-28T05:34:41.813Z,99624.62
2022-09-28T05:35:43.605Z,99621.16
2022-09-28T05:36:45.440Z,99622.00
2022-09-28T05:37:47.255Z,99622.84
2022-09-28T05:38:49.046Z,99620.17
2022-09-28T05:39:50.874Z,99618.42
2022-09-28T05:40:52.743Z,99621.00
2022-09-28T05:41:54.582Z,99626.25
2022-09-28T05:42:56.386Z,99622.70
2022-09-28T05:43:58.187Z,99620.02
2022-09-28T05:45:00.032Z,99623.52
2022-09-28T05:46:01.907Z,99625.27
2022-09-28T05:47:03.724Z,99623.48
2022-09-28T05:48:05.526Z,99626.10
2022-09-28T05:49:07.328Z,99630.42
2022-09-28T05:50:09.376Z,99619.07
2022-09-28T05:51:11.185Z,99624.27
2022-09-28T05:52:13.139Z,99621.64
2022-09-28T05:53:14.939Z,99626.00
2022-09-28T05:54:16.957Z,99623.38
2022-09-28T05:55:18.918Z,99623.38
2022-09-28T05:56:20.809Z,99618.06
2022-09-28T05:57:22.611Z,99624.17
2022-09-28T05:58:24.312Z,99618.06
2022-09-28T05:59:26.100Z,99617.19
2022-09-28T06:00:27.943Z,99617.23
2022-09-28T06:01:30.034Z,99626.84
2022-09-28T06:02:31.902Z,99627.70
2022-09-28T06:03:33.659Z,99631.20
2022-09-28T06:04:35.459Z,99626.80
2022-09-28T06:05:37.320Z,99617.17
2022-09-28T06:06:39.141Z,99628.52
2022-09-28T06:07:41.087Z,99632.88
2022-09-28T06:08:42.899Z,99634.58
2022-09-28T06:09:45.518Z,99630.20
2022-09-28T06:10:47.352Z,99629.27
2022-09-28T06:11:49.177Z,99626.64
2022-09-28T06:12:50.987Z,99628.42
2022-09-28T06:13:52.777Z,99629.22
2022-09-28T06:14:54.685Z,99633.58
2022-09-28T06:15:56.527Z,99630.09
2022-09-28T06:16:58.479Z,99638.83
2022-09-28T06:18:00.495Z,99631.80
2022-09-28T06:19:02.295Z,99636.15
2022-09-28T06:20:04.093Z,99643.13
2022-09-28T06:21:06.033Z,99640.50
2022-09-28T06:22:07.936Z,99641.35
2022-09-28T06:23:09.818Z,99641.35
2022-09-28T06:24:11.642Z,99641.35
2022-09-28T06:25:13.442Z,99638.67
2022-09-28T06:26:16.242Z,99638.67
2022-09-28T06:27:18.034Z,99639.47
2022-09-28T06:28:19.836Z,99638.62
2022-09-28T06:29:21.679Z,99637.72
2022-09-28T06:30:23.526Z,99640.30
2022-09-28T06:31:25.321Z,99642.92
2022-09-28T06:32:27.102Z,99641.14
2022-09-28T06:33:28.934Z,99640.25
2022-09-28T06:34:30.757Z,99641.94
2022-09-28T06:35:32.539Z,99645.45
2022-09-28T06:36:34.367Z,99644.52
2022-09-28T06:37:36.178Z,99645.40
2022-09-28T06:38:38.020Z,99642.83
2022-09-28T06:39:39.837Z,99645.40
2022-09-28T06:40:41.667Z,99640.98
2022-09-28T06:41:43.585Z,99638.36
2022-09-28T06:42:45.399Z,99646.25
2022-09-28T06:43:47.289Z,99642.72
2022-09-28T06:44:49.141Z,99635.73
2022-09-28T06:45:50.972Z,99638.31
2022-09-28T06:46:52.823Z,99635.68
2022-09-28T06:47:54.733Z,99635.68
2022-09-28T06:48:56.615Z,99642.66
2022-09-28T06:49:58.434Z,99642.66
2022-09-28T06:51:00.423Z,99647.02
2022-09-28T06:52:02.253Z,99648.77
2022-09-28T06:53:04.046Z,99647.92
2022-09-28T06:54:05.869Z,99651.45
2022-09-28T06:55:07.675Z,99650.60
2022-09-28T06:56:09.613Z,99650.66
2022-09-28T06:57:11.470Z,99653.28
2022-09-28T06:58:13.308Z,99650.66
2022-09-28T06:59:15.142Z,99658.59
2022-09-28T07:00:17.580Z,99657.70
2022-09-28T07:01:19.466Z,99658.59
2022-09-28T07:02:21.431Z,99664.75
2022-09-28T07:03:23.303Z,99669.16
2022-09-28T07:04:25.134Z,99662.17
2022-09-28T07:05:27.037Z,99668.27
2022-09-28T07:06:28.858Z,99666.58
2022-09-28T07:07:30.726Z,99663.95
2022-09-28T07:08:32.579Z,99668.38
2022-09-28T07:09:38.161Z,99663.13
2022-09-28T07:10:38.100Z,99664.84
2022-09-28T07:11:39.923Z,99671.88
2022-09-28T07:12:41.792Z,99667.53
2022-09-28T07:13:50.954Z,99668.38
2022-09-28T07:14:48.430Z,99661.38
2022-09-28T07:15:50.475Z,99668.38
2022-09-28T07:17:11.917Z,99661.42
2022-09-28T07:18:02.135Z,99662.27
2022-09-28T07:18:59.661Z,99659.59
2022-09-28T07:20:11.568Z,99663.07
2022-09-28T07:21:05.154Z,99664.84
2022-09-28T07:22:07.004Z,99662.22
2022-09-28T07:23:18.354Z,99658.74
2022-09-28T07:24:12.496Z,99666.58
2022-09-28T07:25:14.527Z,99664.80
2022-09-28T07:26:19.651Z,99663.95
2022-09-28T07:27:20.216Z,99663.13
2022-09-28T07:28:22.091Z,99661.38
2022-09-28T07:29:23.902Z,99658.80
2022-09-28T07:30:25.840Z,99666.68
2022-09-28T07:31:27.758Z,99665.80
2022-09-28T07:33:31.341Z,99657.12
2022-09-28T07:34:33.194Z,99664.10
2022-09-28T07:35:35.046Z,99666.73
2022-09-28T07:36:36.899Z,99665.00
2022-09-28T07:37:38.728Z,99658.90
2022-09-28T07:38:40.722Z,99661.53
2022-09-28T07:39:42.574Z,99673.78
2022-09-28T07:40:48.301Z,99664.20
2022-09-28T07:41:48.120Z,99661.58
2022-09-28T07:42:49.938Z,99673.83
2022-09-28T07:43:52.611Z,99668.63
2022-09-28T07:44:54.466Z,99666.94
2022-09-28T07:45:56.351Z,99667.78
2022-09-28T07:46:58.232Z,99663.42
2022-09-28T07:48:00.165Z,99664.31
2022-09-28T07:49:02.122Z,99661.68
2022-09-28T07:50:04.059Z,99666.94
2022-09-28T07:51:05.898Z,99663.42
2022-09-28T07:52:07.842Z,99664.31
2022-09-28T07:53:09.667Z,99659.95
2022-09-28T07:54:11.521Z,99661.68
2022-09-28T07:55:13.329Z,99659.95
2022-09-28T07:56:15.492Z,99665.20
2022-09-28T07:57:17.350Z,99663.42
2022-09-28T07:58:19.177Z,99659.91
2022-09-28T07:59:21.053Z,99659.95
2022-09-28T08:00:22.917Z,99665.16
2022-09-28T08:01:24.758Z,99659.91
2022-09-28T08:02:26.627Z,99660.70
2022-09-28T08:03:28.506Z,99657.22
2022-09-28T08:04:30.360Z,99645.86
2022-09-28T08:05:32.183Z,99649.34
2022-09-28T08:06:34.118Z,99651.12
2022-09-28T08:07:35.970Z,99647.61
2022-09-28T08:08:37.814Z,99652.87
2022-09-28T08:09:39.679Z,99654.59
2022-09-28T08:10:44.491Z,99643.23
2022-09-28T08:11:45.175Z,99637.16
2022-09-28T08:12:47.005Z,99637.16
2022-09-28T08:13:48.853Z,99637.93
2022-09-28T08:14:50.726Z,99640.56
2022-09-28T08:15:52.591Z,99641.41
2022-09-28T08:16:54.406Z,99637.88
2022-09-28T08:17:59.144Z,99630.84
2022-09-28T08:18:59.849Z,99637.00
2022-09-28T08:20:02.422Z,99628.22
2022-09-28T08:21:04.241Z,99633.47
2022-09-28T08:22:06.062Z,99630.00
2022-09-28T08:23:07.902Z,99632.63
2022-09-28T08:24:09.748Z,99630.84
2022-09-28T08:25:11.610Z,99624.73
2022-09-28T08:26:15.732Z,99621.18
2022-09-28T08:27:17.632Z,99616.86
2022-09-28T08:28:19.456Z,99615.08
2022-09-28T08:29:21.292Z,99613.30
2022-09-28T08:30:23.304Z,99607.19
2022-09-28T08:31:25.210Z,99610.67
2022-09-28T08:32:27.063Z,99621.18
2022-09-28T08:33:28.886Z,99620.33
2022-09-28T08:34:30.740Z,99627.31
2022-09-28T08:35:32.596Z,99626.44
2022-09-28T08:36:34.458Z,99612.40
2022-09-28T08:37:36.252Z,99614.17
2022-09-28T08:38:38.118Z,99608.88
2022-09-28T08:39:39.950Z,99600.98
2022-09-28T08:40:41.870Z,99600.93
2022-09-28T08:41:43.729Z,99593.05
2022-09-28T08:42:45.645Z,99591.22
2022-09-28T08:43:47.516Z,99584.18
2022-09-28T08:44:49.341Z,99577.23
2022-09-28T08:45:52.225Z,99578.12
2022-09-28T08:46:54.171Z,99582.54
2022-09-28T08:47:55.989Z,99578.18
2022-09-28T08:49:20.478Z,99579.91
2022-09-28T08:50:01.496Z,99579.91
2022-09-28T08:51:03.358Z,99585.11
2022-09-28T08:52:05.241Z,99588.59
2022-09-28T08:53:09.859Z,99599.10
2022-09-28T08:54:12.755Z,99606.14
2022-09-28T08:55:14.587Z,99614.87
2022-09-28T08:56:16.573Z,99614.87
2022-09-28T08:57:18.389Z,99614.87
2022-09-28T08:58:20.293Z,99602.58
2022-09-28T08:59:22.123Z,99607.83
2022-09-28T09:00:23.965Z,99610.41
2022-09-28T09:01:25.962Z,99614.76
2022-09-28T09:02:27.897Z,99619.06
2022-09-28T09:03:29.670Z,99619.02
2022-09-28T09:04:31.505Z,99628.63
2022-09-28T09:05:33.359Z,99626.84
2022-09-28T09:06:35.224Z,99624.16
2022-09-28T09:07:37.056Z,99635.47
2022-09-28T09:08:38.843Z,99628.47
2022-09-28T09:09:42.235Z,99630.16
2022-09-28T09:10:45.283Z,99630.16
2022-09-28T09:11:47.125Z,99626.58
2022-09-28T09:12:48.943Z,99630.88
2022-09-28T09:13:50.880Z,99634.36
2022-09-28T09:14:52.700Z,99636.94
2022-09-28T09:15:54.556Z,99640.36
2022-09-28T09:17:00.010Z,99640.30
2022-09-28T09:17:59.960Z,99648.13
2022-09-28T09:19:01.748Z,99648.08
2022-09-28T09:20:03.579Z,99637.56
2022-09-28T09:21:05.402Z,99641.92
2022-09-28T09:22:07.227Z,99643.65
2022-09-28T09:23:09.137Z,99641.87
2022-09-28T09:24:11.179Z,99640.97
2022-09-28T09:25:12.906Z,99635.66
2022-09-28T09:26:17.367Z,99642.64
2022-09-28T09:27:18.577Z,99640.86
2022-09-28T09:28:20.388Z,99644.34
2022-09-28T09:29:22.212Z,99645.22
2022-09-28T09:30:24.215Z,99639.90
2022-09-28T09:31:26.354Z,99638.97
2022-09-28T09:32:28.190Z,99638.06
2022-09-28T09:33:29.968Z,99634.53
2022-09-28T09:34:31.769Z,99628.34
2022-09-28T09:35:33.571Z,99635.33
2022-09-28T09:36:35.375Z,99633.48
2022-09-28T09:37:37.205Z,99639.62
2022-09-28T09:38:39.014Z,99634.31
2022-09-28T09:39:40.809Z,99635.16
2022-09-28T09:40:42.663Z,99634.27
2022-09-28T09:41:44.428Z,99631.69
2022-09-28T09:42:46.284Z,99635.16
2022-09-28T09:43:48.043Z,99629.05
2022-09-28T09:44:49.917Z,99626.38
2022-09-28T09:45:51.779Z,99635.05
2022-09-28T09:46:53.549Z,99627.16
2022-09-28T09:47:55.407Z,99626.26
2022-09-28T09:48:57.200Z,99634.15
2022-09-28T09:49:59.003Z,99629.73
2022-09-28T09:51:00.813Z,99629.68
2022-09-28T09:52:02.525Z,99630.56
2022-09-28T09:53:04.367Z,99633.17
2022-09-28T09:54:06.167Z,99627.00
2022-09-28T09:55:07.957Z,99630.48
2022-09-28T09:56:10.078Z,99625.22
2022-09-28T09:57:11.876Z,99633.95
2022-09-28T09:58:13.816Z,99626.02
2022-09-28T09:59:15.697Z,99634.75
2022-09-28T10:00:18.038Z,99631.27
2022-09-28T10:01:20.134Z,99630.38
2022-09-28T10:02:21.964Z,99639.11
2022-09-28T10:03:23.887Z,99632.06
2022-09-28T10:04:25.702Z,99639.11
2022-09-28T10:05:27.494Z,99639.05
2022-09-28T10:06:29.294Z,99632.94
2022-09-28T10:07:31.091Z,99631.16
2022-09-28T10:08:32.938Z,99633.79
2022-09-28T10:09:34.766Z,99632.94
2022-09-28T10:10:36.549Z,99632.94
2022-09-28T10:11:38.355Z,99629.44
2022-09-28T10:12:40.186Z,99642.53
2022-09-28T10:13:42.029Z,99633.73
2022-09-28T10:14:43.853Z,99632.01
2022-09-28T10:15:45.688Z,99642.53
2022-09-28T10:16:47.549Z,99646.04
2022-09-28T10:17:49.284Z,99651.30
2022-09-28T10:18:51.138Z,99641.69
2022-09-28T10:19:52.992Z,99644.31
2022-09-28T10:20:54.813Z,99638.20
2022-09-28T10:21:56.607Z,99636.42
2022-09-28T10:22:58.414Z,99635.52
2022-09-28T10:24:00.297Z,99641.63
2022-09-28T10:25:02.071Z,99644.25
2022-09-28T10:26:03.784Z,99649.52
2022-09-28T10:27:05.616Z,99646.04
2022-09-28T10:28:07.406Z,99644.25
2022-09-28T10:29:09.294Z,99642.47
2022-09-28T10:30:11.580Z,99654.78
2022-09-28T10:31:13.432Z,99656.56
2022-09-28T10:32:15.235Z,99653.98
2022-09-28T10:33:17.039Z,99650.48
2022-09-28T10:34:19.110Z,99655.73
2022-09-28T10:35:20.981Z,99656.73
2022-09-28T10:36:22.900Z,99652.31
2022-09-28T10:37:24.715Z,99648.84
2022-09-28T10:38:26.517Z,99653.22
2022-09-28T10:39:28.559Z,99655.00
2022-09-28T10:40:30.502Z,99657.63
2022-09-28T10:41:32.409Z,99648.95
2022-09-28T10:42:34.202Z,99652.45
2022-09-28T10:43:35.999Z,99648.97
2022-09-28T10:44:37.842Z,99650.78
2022-09-28T10:45:39.763Z,99654.28
2022-09-28T10:46:41.533Z,99647.24
2022-09-28T10:47:43.389Z,99649.05
2022-09-28T10:48:45.189Z,99644.67
2022-09-28T10:49:47.513Z,99642.88
2022-09-28T10:50:49.446Z,99639.41
2022-09-28T10:51:51.251Z,99637.63
2022-09-28T10:52:53.064Z,99642.88
2022-09-28T10:53:54.874Z,99638.50
2022-09-28T10:54:56.712Z,99641.93
2022-09-28T10:55:58.511Z,99641.93
2022-09-28T10:57:00.424Z,99645.38
2022-09-28T10:58:02.238Z,99648.89
2022-09-28T10:59:04.020Z,99641.84
2022-09-28T11:00:06.215Z,99645.33
2022-09-28T11:01:08.342Z,99642.64
2022-09-28T11:02:10.238Z,99647.00
2022-09-28T11:03:12.003Z,99643.52
2022-09-28T11:04:15.064Z,99644.37
2022-09-28T11:05:16.970Z,99636.48
2022-09-28T11:06:18.799Z,99638.20
2022-09-28T11:07:20.604Z,99646.04
2022-09-28T11:08:22.413Z,99630.26
2022-09-28T11:09:28.397Z,99631.95
2022-09-28T11:10:27.874Z,99635.46
2022-09-28T11:11:29.669Z,99640.67
2022-09-28T11:12:31.478Z,99639.73
2022-09-28T11:13:33.291Z,99630.88
2022-09-28T11:14:39.601Z,99633.51
2022-09-28T11:15:38.753Z,99636.14
2022-09-28T11:16:40.618Z,99635.23
2022-09-28T11:17:42.468Z,99638.72
2022-09-28T11:18:44.290Z,99637.81
2022-09-28T11:19:46.099Z,99645.64
2022-09-28T11:20:48.006Z,99637.75
2022-09-28T11:21:49.815Z,99639.48
2022-09-28T11:22:53.549Z,99655.27
2022-09-28T11:23:55.290Z,99644.74
2022-09-28T11:24:57.232Z,99650.85
2022-09-28T11:25:59.104Z,99650.91
2022-09-28T11:27:01.033Z,99642.13
2022-09-28T11:28:02.865Z,99653.59
2022-09-28T11:29:04.704Z,99649.23
2022-09-28T11:30:06.621Z,99659.77
2022-09-28T11:31:08.556Z,99662.34
2022-09-28T11:32:14.891Z,99660.61
2022-09-28T11:33:14.089Z,99661.44
2022-09-28T11:34:15.970Z,99661.44
2022-09-28T11:35:17.750Z,99650.00
2022-09-28T11:36:19.731Z,99649.13
2022-09-28T11:37:21.582Z,99649.13
2022-09-28T11:38:23.407Z,99645.59
2022-09-28T11:39:25.242Z,99644.74
2022-09-28T11:40:27.116Z,99643.86
2022-09-28T11:41:29.259Z,99650.85
2022-09-28T11:42:31.084Z,99645.59
2022-09-28T11:43:32.942Z,99649.02
2022-09-28T11:44:34.773Z,99648.16
2022-09-28T11:45:36.703Z,99646.38
2022-09-28T11:46:40.065Z,99642.84
2022-09-28T11:47:43.801Z,99645.42
2022-09-28T11:48:45.963Z,99643.63
2022-09-28T11:49:48.450Z,99642.78
2022-09-28T11:50:50.419Z,99644.57
2022-09-28T11:51:52.309Z,99645.42
2022-09-28T11:52:54.491Z,99643.69
2022-09-28T11:53:56.339Z,99642.00
2022-09-28T11:54:58.446Z,99641.12
2022-09-28T11:56:02.455Z,99646.38
2022-09-28T11:57:04.321Z,99639.36
2022-09-28T11:58:06.208Z,99638.43
2022-09-28T11:59:08.378Z,99641.06
2022-09-28T12:00:10.769Z,99638.43
2022-09-28T12:01:18.084Z,99634.89
2022-09-28T12:02:18.749Z,99637.58
2022-09-28T12:03:20.868Z,99638.43
2022-09-28T12:04:22.897Z,99643.75
2022-09-28T12:05:24.760Z,99645.48
2022-09-28T12:06:26.657Z,99643.69
2022-09-28T12:07:28.656Z,99641.06
2022-09-28T12:08:39.208Z,99647.20